createdAt,value
2019-01-19T00:00:16.739Z,95101.17
2019-01-19T00:03:17.154Z,95101.17
2019-01-19T00:06:34.254Z,95100.52
2019-01-19T00:09:17.701Z,95099.73
2019-01-19T00:12:35.429Z,95104.69
2019-01-19T00:15:18.320Z,95092.37
2019-01-19T00:18:39.347Z,95092.37
2019-01-19T00:21:36.921Z,95096.83
2019-01-19T00:24:57.697Z,95096.83
2019-01-19T00:27:47.193Z,95101.44
2019-01-19T00:30:36.261Z,95109.45
2019-01-19T00:33:55.731Z,95101.92
2019-01-19T00:36:43.879Z,95109.73
2019-01-19T00:39:51.880Z,95109.25
2019-01-19T00:42:56.616Z,95109.74
2019-01-19T00:46:12.101Z,95119.53
2019-01-19T00:48:58.789Z,95119.86
2019-01-19T00:52:13.662Z,95124.33
2019-01-19T00:55:11.937Z,95124.33
2019-01-19T00:58:26.394Z,95111.86
2019-01-19T01:01:32.855Z,95116.83
2019-01-19T01:04:26.632Z,95117.94
2019-01-19T01:07:52.656Z,95117.94
2019-01-19T01:10:32.815Z,95117.77
2019-01-19T01:13:35.286Z,95115.81
2019-01-19T01:16:48.206Z,95115.81
2019-01-19T01:20:18.208Z,95110.68
2019-01-19T01:23:12.701Z,95123.82
2019-01-19T01:26:17.754Z,95123.82
2019-01-19T01:29:16.222Z,95120.63
2019-01-19T01:32:13.698Z,95119.70
2019-01-19T01:35:21.378Z,95119.70
2019-01-19T01:38:05.379Z,95120.84
2019-01-19T01:41:09.359Z,95120.84
2019-01-19T01:44:22.371Z,95124.80
2019-01-19T01:47:42.343Z,95124.80
2019-01-19T01:50:59.669Z,95126.88
2019-01-19T01:54:10.334Z,95127.04
2019-01-19T01:56:41.690Z,95128.66
2019-01-19T01:59:36.285Z,95128.66
2019-01-19T02:02:45.107Z,95120.34
2019-01-19T02:06:00.884Z,95121.61
2019-01-19T02:09:16.875Z,95124.02
2019-01-19T02:12:39.926Z,95128.97
2019-01-19T02:15:26.024Z,95128.97
2019-01-19T02:18:22.052Z,95126.08
2019-01-19T02:21:26.892Z,95126.08
2019-01-19T02:24:38.669Z,95122.75
2019-01-19T02:27:44.019Z,95122.75
2019-01-19T02:30:59.178Z,95122.26
2019-01-19T02:34:32.472Z,95124.80
2019-01-19T02:37:50.830Z,95119.67
2019-01-19T02:40:39.864Z,95129.84
2019-01-19T02:43:36.710Z,95124.67
2019-01-19T02:46:55.974Z,95125.00
2019-01-19T02:50:04.281Z,95118.87
2019-01-19T02:53:28.712Z,95118.87
2019-01-19T02:56:43.504Z,95124.48
2019-01-19T02:59:34.657Z,95120.95
2019-01-19T03:02:32.598Z,95124.80
2019-01-19T03:05:25.783Z,95124.80
2019-01-19T03:08:53.425Z,95118.72
2019-01-19T03:11:46.102Z,95121.64
2019-01-19T03:14:41.506Z,95125.80
2019-01-19T03:18:14.694Z,95119.87
2019-01-19T03:21:31.799Z,95112.03
2019-01-19T03:24:44.500Z,95115.87
2019-01-19T03:27:52.291Z,95115.87
2019-01-19T03:30:41.263Z,95120.20
2019-01-19T03:33:58.391Z,95122.89
2019-01-19T03:37:19.178Z,95125.09
2019-01-19T03:40:14.805Z,95125.09
2019-01-19T03:43:12.828Z,95125.20
2019-01-19T03:46:10.279Z,95118.64
2019-01-19T03:49:21.401Z,95124.88
2019-01-19T03:52:21.126Z,95118.82
2019-01-19T03:55:38.165Z,95118.82
2019-01-19T03:58:43.571Z,95120.44
2019-01-19T04:01:55.333Z,95134.89
2019-01-19T04:04:36.823Z,95127.38
2019-01-19T04:07:39.245Z,95127.38
2019-01-19T04:10:32.495Z,95132.35
2019-01-19T04:13:19.717Z,95138.43
2019-01-19T04:16:29.280Z,95140.51
2019-01-19T04:19:26.828Z,95144.22
2019-01-19T04:22:07.051Z,95141.48
2019-01-19T04:25:11.531Z,95145.63
2019-01-19T04:27:42.526Z,95151.41
2019-01-19T04:30:14.124Z,95151.41
2019-01-19T04:32:45.475Z,95159.41
2019-01-19T04:35:16.660Z,95162.27
2019-01-19T04:37:47.788Z,95160.99
2019-01-19T04:40:19.126Z,95157.11
2019-01-19T04:42:51.335Z,95157.91
2019-01-19T04:45:22.686Z,95171.59
2019-01-19T04:47:53.991Z,95171.59
2019-01-19T04:50:25.314Z,95171.36
2019-01-19T04:52:56.669Z,95176.70
2019-01-19T04:55:27.999Z,95176.55
2019-01-19T04:57:59.107Z,95170.97
2019-01-19T05:00:30.470Z,95170.97
2019-01-19T05:03:01.682Z,95175.41
2019-01-19T05:05:32.884Z,95175.41
2019-01-19T05:08:04.290Z,95173.19
2019-01-19T05:10:35.843Z,95173.85
2019-01-19T05:13:07.134Z,95181.41
2019-01-19T05:15:38.499Z,95181.41
2019-01-19T05:18:11.589Z,95185.20
2019-01-19T05:20:42.873Z,95179.91
2019-01-19T05:23:13.927Z,95176.58
2019-01-19T05:25:46.342Z,95180.93
2019-01-19T05:28:17.667Z,95176.91
2019-01-19T05:30:48.936Z,95182.17
2019-01-19T05:33:20.296Z,95182.17
2019-01-19T05:35:51.488Z,95184.03
2019-01-19T05:38:22.618Z,95185.31
2019-01-19T05:40:53.819Z,95190.93
2019-01-19T05:43:25.145Z,95182.47
2019-01-19T05:45:56.573Z,95185.49
2019-01-19T05:48:27.735Z,95188.30
2019-01-19T05:50:59.178Z,95191.98
2019-01-19T05:53:30.498Z,95200.30
2019-01-19T05:56:01.687Z,95200.30
2019-01-19T05:58:33.035Z,95197.19
2019-01-19T06:01:04.403Z,95197.19
2019-01-19T06:03:35.539Z,95191.61
2019-01-19T06:06:06.894Z,95197.52
2019-01-19T06:08:38.226Z,95200.64
2019-01-19T06:11:09.597Z,95200.64
2019-01-19T06:13:40.775Z,95209.95
2019-01-19T06:16:12.289Z,95214.15
2019-01-19T06:18:44.166Z,95218.31
2019-01-19T06:21:16.936Z,95220.91
2019-01-19T06:23:48.278Z,95219.05
2019-01-19T06:26:19.615Z,95219.05
2019-01-19T06:28:50.704Z,95212.50
2019-01-19T06:31:22.040Z,95207.57
2019-01-19T06:33:53.752Z,95226.00
2019-01-19T06:36:25.277Z,95221.03
2019-01-19T06:38:56.676Z,95221.03
2019-01-19T06:41:28.208Z,95217.55
2019-01-19T06:43:59.530Z,95215.81
2019-01-19T06:46:30.928Z,95219.84
2019-01-19T06:49:02.210Z,95226.27
2019-01-19T06:51:33.530Z,95219.07
2019-01-19T06:54:05.395Z,95229.46
2019-01-19T06:56:36.731Z,95228.68
2019-01-19T06:59:07.927Z,95232.05
2019-01-19T07:01:39.332Z,95225.66
2019-01-19T07:04:10.674Z,95225.66
2019-01-19T07:06:41.946Z,95232.20
2019-01-19T07:09:13.156Z,95237.81
2019-01-19T07:11:44.964Z,95236.83
2019-01-19T07:14:16.212Z,95237.14
2019-01-19T07:16:47.418Z,95232.67
2019-01-19T07:19:18.812Z,95234.59
2019-01-19T07:21:50.139Z,95237.45
2019-01-19T07:24:21.460Z,95244.95
2019-01-19T07:26:52.799Z,95238.22
2019-01-19T07:29:24.096Z,95234.03
2019-01-19T07:31:55.290Z,95247.31
2019-01-19T07:34:26.733Z,95243.97
2019-01-19T07:36:58.016Z,95240.77
2019-01-19T07:39:29.294Z,95250.70
2019-01-19T07:42:00.713Z,95244.75
2019-01-19T07:44:31.914Z,95257.20
2019-01-19T07:47:05.389Z,95254.98
2019-01-19T07:49:36.620Z,95255.41
2019-01-19T07:52:08.135Z,95257.36
2019-01-19T07:54:39.416Z,95261.77
2019-01-19T07:57:10.853Z,95261.97
2019-01-19T07:59:42.070Z,95261.35
2019-01-19T08:02:13.428Z,95259.92
2019-01-19T08:04:44.779Z,95252.52
2019-01-19T08:07:17.367Z,95261.39
2019-01-19T08:09:49.067Z,95258.72
2019-01-19T08:12:20.290Z,95266.73
2019-01-19T08:14:51.676Z,95267.45
2019-01-19T08:17:22.905Z,95260.48
2019-01-19T08:19:54.349Z,95273.08
2019-01-19T08:22:25.693Z,95269.39
2019-01-19T08:24:56.783Z,95276.28
2019-01-19T08:27:28.146Z,95280.56
2019-01-19T08:29:59.469Z,95278.30
2019-01-19T08:32:30.670Z,95281.03
2019-01-19T08:35:01.933Z,95283.38
2019-01-19T08:37:33.022Z,95278.38
2019-01-19T08:40:04.841Z,95278.38
2019-01-19T08:42:36.586Z,95277.27
2019-01-19T08:45:08.384Z,95287.71
2019-01-19T08:47:39.564Z,95275.48
2019-01-19T08:50:10.899Z,95286.30
2019-01-19T08:52:42.278Z,95291.91
2019-01-19T08:55:13.653Z,95291.91
2019-01-19T08:57:44.910Z,95295.95
2019-01-19T09:00:16.785Z,95295.95
2019-01-19T09:02:48.185Z,95295.08
2019-01-19T09:05:19.515Z,95306.73
2019-01-19T09:07:50.739Z,95304.69
2019-01-19T09:10:21.993Z,95303.78
2019-01-19T09:12:54.598Z,95300.67
2019-01-19T09:15:25.999Z,95304.98
2019-01-19T09:17:57.308Z,95302.05
2019-01-19T09:20:28.563Z,95302.67
2019-01-19T09:23:04.496Z,95305.02
2019-01-19T09:25:35.754Z,95301.78
2019-01-19T09:28:06.868Z,95297.31
2019-01-19T09:30:38.146Z,95291.82
2019-01-19T09:33:09.599Z,95293.20
2019-01-19T09:35:40.814Z,95290.53
2019-01-19T09:38:12.410Z,95290.42
2019-01-19T09:40:43.532Z,95287.06
2019-01-19T09:43:15.171Z,95278.50
2019-01-19T09:45:46.431Z,95274.51
2019-01-19T09:48:17.775Z,95272.50
2019-01-19T09:50:49.091Z,95269.30
2019-01-19T09:53:20.445Z,95276.73
2019-01-19T09:55:51.711Z,95262.50
2019-01-19T09:58:23.065Z,95265.36
2019-01-19T10:00:55.166Z,95267.17
2019-01-19T10:03:26.466Z,95260.78
2019-01-19T10:05:57.825Z,95258.55
2019-01-19T10:08:29.276Z,95249.66
2019-01-19T10:11:00.659Z,95257.64
2019-01-19T10:13:31.926Z,95255.86
2019-01-19T10:16:03.304Z,95246.30
2019-01-19T10:18:34.867Z,95235.14
2019-01-19T10:21:06.125Z,95232.17
2019-01-19T10:23:37.560Z,95236.29
2019-01-19T10:26:08.876Z,95229.08
2019-01-19T10:28:41.092Z,95229.53
2019-01-19T10:31:12.561Z,95230.37
2019-01-19T10:33:43.761Z,95235.54
2019-01-19T10:36:15.054Z,95228.59
2019-01-19T10:38:46.352Z,95227.88
2019-01-19T10:41:17.623Z,95231.45
2019-01-19T10:43:49.349Z,95227.09
2019-01-19T10:46:20.456Z,95219.63
2019-01-19T10:48:51.753Z,95220.45
2019-01-19T10:51:22.936Z,95216.59
2019-01-19T10:53:54.246Z,95214.84
2019-01-19T10:56:25.665Z,95217.17
2019-01-19T10:58:56.914Z,95219.56
2019-01-19T11:01:28.389Z,95212.59
2019-01-19T11:03:59.807Z,95205.88
2019-01-19T11:06:31.033Z,95203.44
2019-01-19T11:09:02.430Z,95196.84
2019-01-19T11:11:36.566Z,95203.73
2019-01-19T11:14:07.859Z,95205.13
2019-01-19T11:16:39.144Z,95197.72
2019-01-19T11:19:10.539Z,95199.16
2019-01-19T11:21:41.743Z,95190.01
2019-01-19T11:24:13.007Z,95196.40
2019-01-19T11:26:44.398Z,95197.38
2019-01-19T11:29:16.766Z,95193.00
2019-01-19T11:31:48.089Z,95195.22
2019-01-19T11:34:20.516Z,95199.29
2019-01-19T11:36:51.795Z,95196.45
2019-01-19T11:39:22.995Z,95190.01
2019-01-19T11:41:54.241Z,95183.86
2019-01-19T11:44:25.540Z,95183.45
2019-01-19T11:46:56.890Z,95189.72
2019-01-19T11:49:27.975Z,95184.84
2019-01-19T11:51:59.164Z,95183.94
2019-01-19T11:54:30.525Z,95173.94
2019-01-19T11:57:01.733Z,95171.16
2019-01-19T11:59:33.041Z,95176.78
2019-01-19T12:02:04.442Z,95172.26
2019-01-19T12:04:35.859Z,95172.44
2019-01-19T12:07:07.084Z,95177.04
2019-01-19T12:09:38.395Z,95176.64
2019-01-19T12:12:09.588Z,95171.70
2019-01-19T12:14:40.823Z,95164.47
2019-01-19T12:17:12.131Z,95164.82
2019-01-19T12:19:43.443Z,95162.47
2019-01-19T12:22:14.596Z,95168.37
2019-01-19T12:24:45.951Z,95165.41
2019-01-19T12:27:17.296Z,95172.13
2019-01-19T12:29:48.550Z,95158.52
2019-01-19T12:32:19.869Z,95160.09
2019-01-19T12:34:51.099Z,95163.34
2019-01-19T12:37:22.526Z,95158.66
2019-01-19T12:39:53.841Z,95154.97
2019-01-19T12:42:25.030Z,95159.46
2019-01-19T12:44:56.236Z,95156.88
2019-01-19T12:47:29.049Z,95156.88
2019-01-19T12:50:00.459Z,95153.11
2019-01-19T12:52:31.737Z,95145.81
2019-01-19T12:55:03.118Z,95148.75
2019-01-19T12:57:34.227Z,95143.87
2019-01-19T13:00:06.561Z,95141.33
2019-01-19T13:02:37.772Z,95145.56
2019-01-19T13:05:13.921Z,95135.03
2019-01-19T13:07:45.095Z,95137.25
2019-01-19T13:10:23.115Z,95131.91
2019-01-19T13:13:18.568Z,95139.38
2019-01-19T13:16:25.361Z,95137.09
2019-01-19T13:19:36.440Z,95138.17
2019-01-19T13:22:47.931Z,95134.02
2019-01-19T13:26:06.453Z,95131.22
2019-01-19T13:29:36.480Z,95132.81
2019-01-19T13:32:56.627Z,95128.85
2019-01-19T13:36:04.281Z,95130.25
2019-01-19T13:39:23.311Z,95128.16
2019-01-19T13:42:49.482Z,95128.55
2019-01-19T13:46:16.343Z,95133.34
2019-01-19T13:49:31.023Z,95123.64
2019-01-19T13:52:20.588Z,95133.55
2019-01-19T13:55:25.336Z,95137.80
2019-01-19T13:58:05.145Z,95133.06
2019-01-19T14:01:07.139Z,95124.17
2019-01-19T14:04:03.060Z,95123.65
2019-01-19T14:06:42.205Z,95124.05
2019-01-19T14:09:46.253Z,95123.65
2019-01-19T14:13:00.366Z,95121.48
2019-01-19T14:15:55.932Z,95117.30
2019-01-19T14:19:12.801Z,95116.70
2019-01-19T14:22:09.939Z,95117.17
2019-01-19T14:25:17.750Z,95115.00
2019-01-19T14:28:29.636Z,95118.41
2019-01-19T14:31:46.659Z,95115.23
2019-01-19T14:34:28.037Z,95113.98
2019-01-19T14:37:37.061Z,95123.75
2019-01-19T14:41:07.088Z,95121.64
2019-01-19T14:44:06.871Z,95125.34
2019-01-19T14:46:56.980Z,95118.04
2019-01-19T14:50:03.950Z,95126.20
2019-01-19T14:53:12.479Z,95126.77
2019-01-19T14:56:20.321Z,95124.54
2019-01-19T14:59:38.205Z,95123.90
2019-01-19T15:03:14.454Z,95129.70
2019-01-19T15:06:22.045Z,95127.54
2019-01-19T15:09:13.350Z,95124.69
2019-01-19T15:12:08.748Z,95121.66
2019-01-19T15:15:35.528Z,95129.95
2019-01-19T15:18:31.559Z,95129.95
2019-01-19T15:21:13.239Z,95127.66
2019-01-19T15:24:49.543Z,95127.66
2019-01-19T15:27:58.185Z,95127.95
2019-01-19T15:31:01.771Z,95116.23
2019-01-19T15:33:57.736Z,95116.23
2019-01-19T15:37:09.126Z,95130.09
2019-01-19T15:40:21.529Z,95124.94
2019-01-19T15:43:45.449Z,95132.30
2019-01-19T15:46:53.194Z,95132.30
2019-01-19T15:49:56.803Z,95134.20
2019-01-19T15:53:07.228Z,95139.66
2019-01-19T15:56:28.667Z,95140.36
2019-01-19T15:59:38.927Z,95140.36
2019-01-19T16:02:53.224Z,95136.73
2019-01-19T16:06:11.727Z,95136.73
2019-01-19T16:09:36.886Z,95135.75
2019-01-19T16:12:17.245Z,95136.53
2019-01-19T16:15:09.920Z,95145.91
2019-01-19T16:18:36.152Z,95147.64
2019-01-19T16:21:44.355Z,95143.95
2019-01-19T16:24:44.874Z,95139.19
2019-01-19T16:27:54.015Z,95144.66
2019-01-19T16:30:53.817Z,95144.66
2019-01-19T16:34:15.144Z,95149.19
2019-01-19T16:37:01.959Z,95149.85
2019-01-19T16:40:18.868Z,95151.70
2019-01-19T16:43:15.206Z,95152.29
2019-01-19T16:46:31.711Z,95156.05
2019-01-19T16:49:35.221Z,95157.64
2019-01-19T16:52:37.377Z,95157.40
2019-01-19T16:55:30.337Z,95165.85
2019-01-19T16:58:57.677Z,95169.16
2019-01-19T17:02:09.327Z,95169.82
2019-01-19T17:05:10.305Z,95172.56
2019-01-19T17:08:22.960Z,95175.94
2019-01-19T17:11:37.172Z,95180.80
2019-01-19T17:15:01.524Z,95179.38
2019-01-19T17:18:12.648Z,95180.53
2019-01-19T17:21:19.365Z,95184.05
2019-01-19T17:24:30.754Z,95182.87
2019-01-19T17:27:37.025Z,95181.36
2019-01-19T17:30:39.744Z,95188.53
2019-01-19T17:33:48.132Z,95195.84
2019-01-19T17:36:53.669Z,95195.73
2019-01-19T17:40:01.702Z,95195.25
2019-01-19T17:43:17.932Z,95192.29
2019-01-19T17:46:00.235Z,95194.90
2019-01-19T17:48:53.246Z,95191.45
2019-01-19T17:52:11.160Z,95197.35
2019-01-19T17:55:14.715Z,95197.67
2019-01-19T17:58:23.950Z,95203.38
2019-01-19T18:01:30.650Z,95188.25
2019-01-19T18:04:20.165Z,95195.80
2019-01-19T18:07:04.606Z,95192.52
2019-01-19T18:10:06.113Z,95197.73
2019-01-19T18:13:33.605Z,95202.19
2019-01-19T18:16:41.617Z,95199.92
2019-01-19T18:19:46.136Z,95208.70
2019-01-19T18:23:09.911Z,95203.45
2019-01-19T18:26:04.131Z,95198.19
2019-01-19T18:29:17.183Z,95199.83
2019-01-19T18:32:08.793Z,95203.98
2019-01-19T18:35:14.554Z,95199.88
2019-01-19T18:38:28.176Z,95206.27
2019-01-19T18:41:30.286Z,95213.39
2019-01-19T18:44:39.396Z,95204.80
2019-01-19T18:47:47.593Z,95211.59
2019-01-19T18:50:43.989Z,95205.19
2019-01-19T18:53:59.597Z,95208.19
2019-01-19T18:57:12.358Z,95198.18
2019-01-19T18:59:53.179Z,95203.66
2019-01-19T19:02:51.537Z,95200.83
2019-01-19T19:06:03.826Z,95199.74
2019-01-19T19:09:08.713Z,95198.63
2019-01-19T19:12:15.641Z,95198.90
2019-01-19T19:15:10.622Z,95201.95
2019-01-19T19:18:18.056Z,95201.94
2019-01-19T19:21:19.982Z,95196.20
2019-01-19T19:24:49.510Z,95199.15
2019-01-19T19:27:31.750Z,95211.30
2019-01-19T19:30:48.759Z,95207.42
2019-01-19T19:34:08.941Z,95207.27
2019-01-19T19:37:27.443Z,95209.51
2019-01-19T19:40:30.944Z,95209.63
2019-01-19T19:43:28.710Z,95207.52
2019-01-19T19:46:10.743Z,95209.39
2019-01-19T19:49:08.432Z,95212.13
2019-01-19T19:51:56.458Z,95217.10
2019-01-19T19:54:28.500Z,95209.63
2019-01-19T19:56:59.839Z,95218.12
2019-01-19T19:59:31.216Z,95215.75
2019-01-19T20:02:02.542Z,95222.00
2019-01-19T20:04:33.763Z,95217.52
2019-01-19T20:07:05.514Z,95218.20
2019-01-19T20:09:36.801Z,95219.67
2019-01-19T20:12:09.178Z,95223.14
2019-01-19T20:14:40.621Z,95223.53
2019-01-19T20:17:11.964Z,95221.10
2019-01-19T20:19:43.285Z,95218.88
2019-01-19T20:22:14.675Z,95224.81
2019-01-19T20:24:45.956Z,95221.61
2019-01-19T20:27:17.339Z,95221.10
2019-01-19T20:29:48.629Z,95218.75
2019-01-19T20:32:19.828Z,95221.49
2019-01-19T20:34:50.939Z,95220.95
2019-01-19T20:37:22.312Z,95218.84
2019-01-19T20:39:53.436Z,95210.78
2019-01-19T20:42:24.575Z,95219.11
2019-01-19T20:44:55.791Z,95217.58
2019-01-19T20:47:27.193Z,95219.16
2019-01-19T20:49:58.522Z,95215.64
2019-01-19T20:52:29.733Z,95212.33
2019-01-19T20:55:00.945Z,95207.13
2019-01-19T20:57:32.123Z,95206.50
2019-01-19T21:00:08.676Z,95205.22
2019-01-19T21:02:40.077Z,95200.54
2019-01-19T21:05:11.371Z,95209.85
2019-01-19T21:07:42.660Z,95216.23
2019-01-19T21:10:14.290Z,95211.41
2019-01-19T21:12:46.555Z,95212.33
2019-01-19T21:15:17.748Z,95209.75
2019-01-19T21:17:55.627Z,95211.33
2019-01-19T21:20:22.041Z,95213.53
2019-01-19T21:22:53.365Z,95216.73
2019-01-19T21:25:24.784Z,95216.66
2019-01-19T21:27:56.090Z,95212.56
2019-01-19T21:30:27.483Z,95214.09
2019-01-19T21:32:58.928Z,95215.23
2019-01-19T21:35:30.204Z,95220.17
2019-01-19T21:38:02.763Z,95212.56
2019-01-19T21:40:38.957Z,95217.89
2019-01-19T21:43:07.036Z,95224.12
2019-01-19T21:45:38.349Z,95224.55
2019-01-19T21:48:09.552Z,95226.60
2019-01-19T21:50:40.736Z,95226.97
2019-01-19T21:53:11.974Z,95221.00
2019-01-19T21:55:43.358Z,95219.23
2019-01-19T21:58:14.869Z,95220.98
2019-01-19T22:00:46.100Z,95226.47
2019-01-19T22:03:17.552Z,95221.06
2019-01-19T22:05:49.715Z,95222.14
2019-01-19T22:08:21.163Z,95227.62
2019-01-19T22:10:52.485Z,95223.83
2019-01-19T22:13:23.625Z,95226.78
2019-01-19T22:15:54.894Z,95222.92
2019-01-19T22:18:26.256Z,95217.38
2019-01-19T22:20:57.673Z,95216.79
2019-01-19T22:23:29.002Z,95222.77
2019-01-19T22:26:00.238Z,95220.68
2019-01-19T22:28:31.571Z,95213.63
2019-01-19T22:31:02.789Z,95213.94
2019-01-19T22:33:34.306Z,95203.95
2019-01-19T22:36:05.594Z,95207.41
2019-01-19T22:38:36.759Z,95208.96
2019-01-19T22:41:08.034Z,95204.36
2019-01-19T22:43:39.639Z,95197.98
2019-01-19T22:46:11.070Z,95207.66
2019-01-19T22:48:42.511Z,95187.45
2019-01-19T22:51:13.839Z,95199.95
2019-01-19T22:53:45.104Z,95194.02
2019-01-19T22:56:16.358Z,95197.40
2019-01-19T22:58:47.565Z,95193.83
2019-01-19T23:01:35.032Z,95180.39
2019-01-19T23:04:06.401Z,95182.59
2019-01-19T23:06:37.532Z,95191.50
2019-01-19T23:09:13.663Z,95184.29
2019-01-19T23:11:44.959Z,95177.08
2019-01-19T23:14:16.356Z,95184.48
2019-01-19T23:16:47.598Z,95174.07
2019-01-19T23:19:18.835Z,95174.07
2019-01-19T23:21:50.161Z,95173.66
2019-01-19T23:24:21.529Z,95175.06
2019-01-19T23:26:54.346Z,95169.21
2019-01-19T23:29:25.483Z,95173.55
2019-01-19T23:31:56.660Z,95173.34
2019-01-19T23:34:28.032Z,95165.03
2019-01-19T23:36:59.430Z,95167.56
2019-01-19T23:39:30.580Z,95167.24
2019-01-19T23:42:01.955Z,95161.63
2019-01-19T23:44:33.311Z,95161.50
2019-01-19T23:47:04.778Z,95159.22
2019-01-19T23:49:36.219Z,95159.91
2019-01-19T23:52:07.556Z,95154.50
2019-01-19T23:54:38.818Z,95160.67
2019-01-19T23:57:09.939Z,95156.19
2019-01-19T23:59:41.182Z,95175.91
